Time;durP1;ratioP1;P1;durP2;ratioP2;P2;SDS_P1;SDS_P2;PMS_P1;PMS_P2;Temp;Humidity;BMP_temperature;BMP_pressure;BME280_temperature;BME280_humidity;BME280_pressure;Samples;Min_cycle;Max_cycle;Signal;HPM_P1;HPM_P2
2022/06/12 00:00:25;;;;;;;2.40;2.13;;;26.50;54.60;;;;;;6338181;22;20010;-82
2022/06/12 00:02:51;;;;;;;3.03;2.42;;;26.50;54.80;;;;;;6337829;22;19999;-82
2022/06/12 00:05:19;;;;;;;3.20;2.17;;;26.50;54.80;;;;;;6337591;22;20010;-82
2022/06/12 00:07:45;;;;;;;2.75;1.80;;;26.50;54.80;;;;;;6337707;22;20034;-82
2022/06/12 00:10:12;;;;;;;3.45;2.00;;;26.50;54.90;;;;;;6338204;22;20056;-81
2022/06/12 00:12:39;;;;;;;2.08;1.88;;;26.50;55.10;;;;;;6337561;22;20015;-81
2022/06/12 00:15:06;;;;;;;5.18;2.47;;;26.50;55.20;;;;;;6337989;22;20381;-83
2022/06/12 00:17:32;;;;;;;2.92;1.80;;;26.50;55.00;;;;;;6337676;22;20013;-83
2022/06/12 00:19:57;;;;;;;3.22;2.33;;;26.40;54.90;;;;;;6309156;22;20102;-83
2022/06/12 00:22:23;;;;;;;2.85;2.47;;;26.40;54.90;;;;;;6338010;22;20074;-82
2022/06/12 00:24:49;;;;;;;4.45;2.28;;;26.40;55.00;;;;;;6337802;22;20022;-83
2022/06/12 00:27:15;;;;;;;2.47;2.00;;;26.40;54.90;;;;;;6309647;22;20435;-83
2022/06/12 00:29:41;;;;;;;2.83;2.17;;;26.40;54.90;;;;;;6338037;22;20073;-83
2022/06/12 00:32:12;;;;;;;2.10;1.90;;;26.40;55.20;;;;;;6337200;22;20070;-82
2022/06/12 00:34:41;;;;;;;2.63;1.92;;;26.30;55.40;;;;;;6337667;22;20093;-83
2022/06/12 00:37:09;;;;;;;2.42;2.00;;;26.30;55.60;;;;;;6337940;22;20413;-85
2022/06/12 00:39:36;;;;;;;3.22;1.92;;;26.30;55.80;;;;;;6338094;22;20026;-86
2022/06/12 00:42:03;;;;;;;2.95;2.00;;;26.30;55.60;;;;;;6337753;22;20003;-84
2022/06/12 00:44:34;;;;;;;2.00;1.60;;;26.30;55.40;;;;;;6337933;22;20449;-85
2022/06/12 00:47:10;;;;;;;2.30;1.70;;;26.40;55.50;;;;;;6337888;22;20014;-84
2022/06/12 00:49:51;;;;;;;2.63;1.60;;;26.30;55.50;;;;;;6336567;22;20003;-84
2022/06/12 00:52:42;;;;;;;2.88;2.03;;;26.40;55.70;;;;;;6339238;22;20293;-84
2022/06/12 00:55:30;;;;;;;2.10;1.80;;;26.40;55.70;;;;;;6312233;22;20007;-84
2022/06/12 00:58:08;;;;;;;2.63;2.13;;;26.30;55.50;;;;;;6338731;22;19995;-81
2022/06/12 01:00:36;;;;;;;3.80;2.40;;;26.30;55.40;;;;;;6339181;22;20432;-82
2022/06/12 01:03:02;;;;;;;3.65;2.30;;;26.40;55.40;;;;;;6339082;22;19999;-83
2022/06/12 01:08:15;;;;;;;2.92;2.60;;;26.40;55.60;;;;;;6339948;22;20080;-82
2022/06/12 01:10:44;;;;;;;3.95;2.72;;;26.40;55.50;;;;;;6339487;22;20322;-86
2022/06/12 01:13:22;;;;;;;3.53;2.73;;;26.40;55.30;;;;;;6339384;22;20031;-86
2022/06/12 01:16:13;;;;;;;2.70;2.40;;;26.40;55.40;;;;;;6339311;22;20066;-85
2022/06/12 01:18:45;;;;;;;3.20;2.47;;;26.40;55.90;;;;;;6339792;22;20003;-87
2022/06/12 01:21:39;;;;;;;4.00;2.92;;;26.40;55.90;;;;;;6339317;22;20006;-85
2022/06/12 01:24:29;;;;;;;4.50;2.55;;;26.30;55.80;;;;;;6310666;22;20007;-84
2022/06/12 01:27:19;;;;;;;3.08;2.58;;;26.30;55.90;;;;;;6338790;22;20440;-82
2022/06/12 01:29:58;;;;;;;2.95;2.65;;;26.30;56.20;;;;;;6338367;22;19998;-86
2022/06/12 01:32:33;;;;;;;4.80;2.80;;;26.30;56.30;;;;;;6311512;22;20305;-86
2022/06/12 01:35:21;;;;;;;4.60;2.95;;;26.20;56.70;;;;;;6339183;22;20001;-85
2022/06/12 01:38:03;;;;;;;3.88;2.83;;;26.20;56.70;;;;;;6338474;22;19995;-85
2022/06/12 01:40:51;;;;;;;4.60;2.78;;;26.10;56.50;;;;;;6338675;22;20516;-87
2022/06/12 01:43:55;;;;;;;3.35;2.28;;;26.10;56.50;;;;;;6338352;22;20509;-85
2022/06/12 01:46:42;;;;;;;3.53;2.60;;;26.10;56.90;;;;;;6320547;22;20002;-81
2022/06/12 01:49:23;;;;;;;3.17;2.47;;;26.10;56.90;;;;;;6337527;22;20393;-82
2022/06/12 01:52:07;;;;;;;3.90;2.40;;;26.00;57.20;;;;;;6338796;22;20002;-81
2022/06/12 01:54:46;;;;;;;7.57;3.05;;;26.00;57.00;;;;;;6336878;22;19995;-81
2022/06/12 01:57:29;;;;;;;3.67;2.72;;;25.90;57.10;;;;;;6338419;22;20003;-81
2022/06/12 02:00:05;;;;;;;4.03;2.47;;;26.00;57.90;;;;;;6338588;22;20013;-82
2022/06/12 02:02:34;;;;;;;3.10;2.50;;;26.00;57.80;;;;;;6338618;22;20003;-81
2022/06/12 02:05:05;;;;;;;3.17;2.72;;;25.90;57.50;;;;;;6338948;22;20526;-81
2022/06/12 02:07:38;;;;;;;4.72;3.03;;;25.90;57.30;;;;;;6338819;22;20282;-79
2022/06/12 02:10:23;;;;;;;5.90;2.97;;;25.90;57.40;;;;;;6338813;22;20038;-82
2022/06/12 02:13:12;;;;;;;3.78;2.80;;;25.90;57.80;;;;;;6338863;22;20090;-81
2022/06/12 02:16:14;;;;;;;3.63;3.00;;;25.90;57.90;;;;;;6339264;22;19995;-82
2022/06/12 02:18:50;;;;;;;4.50;3.47;;;25.90;58.00;;;;;;6338389;22;20427;-83
2022/06/12 02:21:32;;;;;;;4.60;3.70;;;25.90;58.00;;;;;;6339028;22;19999;-83
2022/06/12 02:24:02;;;;;;;5.47;3.80;;;25.90;58.00;;;;;;6311298;22;19999;-83
2022/06/12 02:26:51;;;;;;;5.93;3.73;;;25.80;58.10;;;;;;6337031;22;20009;-83
2022/06/12 02:29:21;;;;;;;4.27;3.87;;;25.80;58.20;;;;;;6338433;22;19999;-82
2022/06/12 02:31:51;;;;;;;5.45;4.70;;;25.80;58.20;;;;;;6338760;22;20052;-83
2022/06/12 02:34:31;;;;;;;7.85;5.18;;;25.80;58.50;;;;;;6311389;22;20002;-83
2022/06/12 02:37:15;;;;;;;7.05;5.32;;;25.80;58.80;;;;;;6337785;22;20049;-83
2022/06/12 02:39:44;;;;;;;6.93;5.32;;;25.80;58.80;;;;;;6338457;22;20003;-83
2022/06/12 02:42:27;;;;;;;8.77;6.10;;;25.70;58.80;;;;;;6338963;22;19999;-84
2022/06/12 02:45:00;;;;;;;5.80;3.65;;;25.70;59.60;;;;;;6339177;22;20427;-82
2022/06/12 02:47:30;;;;;;;5.70;3.90;;;25.50;59.30;;;;;;6310478;22;20136;-82
2022/06/12 02:49:58;;;;;;;6.63;4.07;;;25.50;59.30;;;;;;6338077;22;19998;-84
2022/06/12 02:52:40;;;;;;;5.35;3.45;;;25.50;59.30;;;;;;6338457;22;20003;-84
2022/06/12 02:55:23;;;;;;;4.55;3.97;;;25.50;59.30;;;;;;6310300;22;19999;-83
2022/06/12 02:58:09;;;;;;;4.28;3.40;;;25.50;59.40;;;;;;6337707;22;20074;-86
2022/06/12 03:00:56;;;;;;;5.28;4.32;;;25.50;59.60;;;;;;6337824;22;20048;-85
2022/06/12 03:03:25;;;;;;;5.60;3.60;;;25.40;60.10;;;;;;6311637;22;20365;-83
2022/06/12 03:05:57;;;;;;;5.60;3.53;;;25.40;59.80;;;;;;6338613;22;20026;-83
2022/06/12 03:08:29;;;;;;;5.55;3.63;;;25.40;60.00;;;;;;6337569;22;20117;-83
2022/06/12 03:11:04;;;;;;;5.47;3.63;;;25.30;60.40;;;;;;6337667;22;20787;-84
2022/06/12 03:13:31;;;;;;;4.13;3.25;;;25.30;60.80;;;;;;6338125;22;20502;-84
2022/06/12 03:16:28;;;;;;;3.90;3.50;;;25.30;60.20;;;;;;6311087;22;20332;-83
2022/06/12 03:18:57;;;;;;;7.45;3.55;;;25.30;60.40;;;;;;6338357;22;19999;-83
2022/06/12 03:21:46;;;;;;;6.82;3.50;;;25.30;60.40;;;;;;6338675;22;19999;-82
2022/06/12 03:24:24;;;;;;;3.78;3.40;;;25.30;60.70;;;;;;6338118;22;20199;-83
2022/06/12 03:27:11;;;;;;;4.95;3.80;;;25.30;60.80;;;;;;6337615;22;20102;-85
2022/06/12 03:29:40;;;;;;;6.13;4.30;;;25.30;60.60;;;;;;6310649;22;20003;-82
2022/06/12 03:32:12;;;;;;;4.80;3.97;;;25.30;61.20;;;;;;6337843;22;19994;-83
2022/06/12 03:35:01;;;;;;;5.82;5.22;;;25.20;60.70;;;;;;6337972;22;20294;-83
2022/06/12 03:37:39;;;;;;;5.17;3.97;;;25.10;61.50;;;;;;6338432;22;19995;-82
2022/06/12 03:40:18;;;;;;;3.90;3.55;;;25.10;61.10;;;;;;6338540;22;19998;-82
2022/06/12 03:42:59;;;;;;;4.40;3.40;;;25.10;61.30;;;;;;6338097;22;20120;-81
2022/06/12 03:45:42;;;;;;;6.53;4.25;;;25.10;61.40;;;;;;6337959;22;20424;-82
2022/06/12 03:48:14;;;;;;;6.03;4.55;;;25.10;61.30;;;;;;6337099;22;20300;-83
2022/06/12 03:50:44;;;;;;;5.18;4.50;;;25.10;61.40;;;;;;6338174;22;19995;-82
2022/06/12 03:53:26;;;;;;;6.68;4.60;;;25.10;61.60;;;;;;6310345;22;20010;-82
2022/06/12 03:59:13;;;;;;;6.30;5.28;;;25.00;62.00;;;;;;6337647;22;20013;-81
2022/06/12 04:01:41;;;;;;;7.38;5.10;;;24.90;62.00;;;;;;6315224;22;20345;-81
2022/06/12 04:04:07;;;;;;;5.22;4.70;;;24.90;62.10;;;;;;6338057;22;20003;-81
2022/06/12 04:06:35;;;;;;;7.20;5.85;;;24.90;62.30;;;;;;6338693;22;20006;-81
2022/06/12 04:09:05;;;;;;;6.05;5.45;;;24.80;62.30;;;;;;6337518;22;20003;-82
2022/06/12 04:11:36;;;;;;;6.75;5.57;;;24.90;62.40;;;;;;6337618;22;20003;-82
2022/06/12 04:14:04;;;;;;;6.20;5.18;;;24.90;62.40;;;;;;6338172;22;20029;-81
2022/06/12 04:16:52;;;;;;;7.18;5.75;;;24.80;62.40;;;;;;6337501;22;20002;-81
2022/06/12 04:19:21;;;;;;;6.40;5.63;;;24.90;62.60;;;;;;6337658;22;20503;-81
2022/06/12 04:21:59;;;;;;;11.03;5.40;;;24.90;62.70;;;;;;6338002;22;20425;-81
2022/06/12 04:24:38;;;;;;;7.10;6.03;;;24.90;62.60;;;;;;6337166;22;20424;-81
2022/06/12 04:27:38;;;;;;;6.45;5.68;;;24.90;62.60;;;;;;6340000;22;20003;-83
2022/06/12 04:30:15;;;;;;;6.65;5.80;;;24.90;62.70;;;;;;6270349;22;20011;-82
2022/06/12 04:32:41;;;;;;;7.13;5.70;;;24.90;62.80;;;;;;6312192;22;20014;-82
2022/06/12 04:35:08;;;;;;;7.15;5.82;;;24.80;62.80;;;;;;6312521;22;20011;-83
2022/06/12 04:37:33;;;;;;;6.82;5.47;;;24.80;62.60;;;;;;6339964;22;20002;-85
2022/06/12 04:40:02;;;;;;;6.68;5.20;;;24.90;62.70;;;;;;6340193;22;20317;-85
2022/06/12 04:42:31;;;;;;;6.38;5.57;;;24.80;63.00;;;;;;6339710;22;20005;-82
2022/06/12 04:45:00;;;;;;;6.95;5.68;;;24.80;63.00;;;;;;6339587;22;20065;-84
2022/06/12 04:47:28;;;;;;;5.78;5.13;;;24.80;63.00;;;;;;6340146;22;20023;-81
2022/06/12 04:49:54;;;;;;;8.10;6.05;;;24.80;63.20;;;;;;6339700;22;20002;-81
2022/06/12 04:52:22;;;;;;;8.25;5.70;;;24.80;64.00;;;;;;6340606;22;19999;-82
2022/06/12 04:54:48;;;;;;;8.80;5.90;;;24.70;63.70;;;;;;6340392;22;19999;-81
2022/06/12 04:57:16;;;;;;;6.30;5.70;;;24.70;63.80;;;;;;6340407;22;20374;-81
2022/06/12 04:59:43;;;;;;;7.20;6.50;;;24.60;64.50;;;;;;6339774;22;20078;-81
2022/06/12 05:02:10;;;;;;;5.90;5.30;;;24.50;64.80;;;;;;6339412;22;20009;-81
2022/06/12 05:04:37;;;;;;;6.15;5.05;;;24.50;64.70;;;;;;6312208;22;20336;-81
2022/06/12 05:07:04;;;;;;;7.28;4.93;;;24.50;64.80;;;;;;6311992;22;20015;-80
2022/06/12 05:09:34;;;;;;;9.95;7.22;;;24.50;64.90;;;;;;6339936;22;20011;-80
2022/06/12 05:12:00;;;;;;;5.15;4.72;;;24.50;65.60;;;;;;6338983;22;20011;-80
2022/06/12 05:14:26;;;;;;;6.63;5.15;;;24.50;64.90;;;;;;6338565;22;20369;-80
2022/06/12 05:16:56;;;;;;;6.05;4.78;;;24.50;65.10;;;;;;6339101;22;20011;-80
2022/06/12 05:19:26;;;;;;;5.65;5.13;;;24.60;65.30;;;;;;6339342;22;20013;-80
2022/06/12 05:21:52;;;;;;;8.35;5.65;;;24.60;65.80;;;;;;6338629;22;20003;-80
2022/06/12 05:24:18;;;;;;;7.47;5.57;;;24.70;65.60;;;;;;6310634;22;20421;-80
2022/06/12 05:26:46;;;;;;;6.18;5.57;;;24.70;65.10;;;;;;6311383;22;20049;-80
2022/06/12 05:29:18;;;;;;;6.60;5.45;;;24.80;65.00;;;;;;6338956;22;20028;-80
2022/06/12 05:31:46;;;;;;;6.28;5.65;;;24.80;64.80;;;;;;6338313;22;20001;-81
2022/06/12 05:34:13;;;;;;;5.47;4.63;;;24.80;64.40;;;;;;6338770;22;19994;-81
2022/06/12 05:36:39;;;;;;;7.93;5.20;;;24.80;64.40;;;;;;6338269;22;19999;-81
2022/06/12 05:39:04;;;;;;;5.20;4.70;;;24.80;64.40;;;;;;6338322;22;20041;-82
2022/06/12 05:41:30;;;;;;;8.82;5.22;;;24.90;64.40;;;;;;6311251;22;20037;-82
2022/06/12 05:43:56;;;;;;;6.20;5.60;;;25.00;64.60;;;;;;6339238;22;20033;-82
2022/06/12 05:46:21;;;;;;;6.32;5.05;;;25.00;64.40;;;;;;6338479;22;20059;-81
2022/06/12 05:48:47;;;;;;;6.35;5.68;;;25.00;64.20;;;;;;6337940;22;20420;-83
2022/06/12 05:51:16;;;;;;;6.10;5.43;;;25.00;64.50;;;;;;6338557;22;19999;-82
2022/06/12 05:53:42;;;;;;;5.78;4.90;;;25.10;64.40;;;;;;6339383;22;19995;-83
2022/06/12 05:56:15;;;;;;;5.07;4.57;;;25.10;64.30;;;;;;6339329;22;20003;-83
2022/06/12 05:58:42;;;;;;;7.85;5.18;;;25.10;64.70;;;;;;6339162;22;20041;-83
2022/06/12 06:01:11;;;;;;;6.25;4.75;;;25.10;64.40;;;;;;6337247;22;20056;-83
2022/06/12 06:03:37;;;;;;;7.60;6.82;;;25.20;64.40;;;;;;6337415;22;20006;-82
2022/06/12 06:06:08;;;;;;;5.35;4.53;;;25.20;64.60;;;;;;6338806;22;20034;-82
2022/06/12 06:08:35;;;;;;;5.20;4.70;;;25.10;64.20;;;;;;6311666;22;20376;-84
2022/06/12 06:11:02;;;;;;;5.78;4.43;;;25.20;64.60;;;;;;6337934;22;20027;-82
2022/06/12 06:13:28;;;;;;;5.15;4.43;;;25.30;64.30;;;;;;6336922;22;20524;-80
2022/06/12 06:15:53;;;;;;;6.32;4.90;;;25.30;64.30;;;;;;6337841;22;20026;-79
2022/06/12 06:18:20;;;;;;;4.70;4.03;;;25.40;64.20;;;;;;6336835;22;20010;-83
2022/06/12 06:20:46;;;;;;;6.80;4.88;;;25.40;63.80;;;;;;6337808;22;20369;-81
2022/06/12 06:23:12;;;;;;;8.10;5.85;;;25.40;64.10;;;;;;6336330;22;20006;-80
2022/06/12 06:25:39;;;;;;;4.50;4.10;;;25.40;64.30;;;;;;6336397;22;19999;-83
2022/06/12 06:28:06;;;;;;;4.53;3.75;;;25.40;63.70;;;;;;6337745;22;19998;-83
2022/06/12 06:30:32;;;;;;;4.47;3.85;;;25.40;63.80;;;;;;6310540;22;20431;-81
2022/06/12 06:32:59;;;;;;;5.03;4.40;;;25.40;63.60;;;;;;6338376;22;20467;-80
2022/06/12 06:35:25;;;;;;;5.65;4.13;;;25.50;63.40;;;;;;6338555;22;20040;-86
2022/06/12 06:37:52;;;;;;;4.13;3.65;;;25.50;63.10;;;;;;6339593;22;19998;-86
2022/06/12 06:40:20;;;;;;;3.97;3.47;;;25.60;63.10;;;;;;6339433;22;20030;-89
2022/06/12 06:42:46;;;;;;;5.22;3.90;;;25.60;62.80;;;;;;6339192;22;20006;-86
2022/06/12 06:47:58;;;;;;;5.70;3.03;;;25.70;62.50;;;;;;6338637;22;20106;-86
2022/06/12 06:50:25;;;;;;;4.72;2.95;;;25.80;62.50;;;;;;6339067;22;20003;-86
2022/06/12 06:52:51;;;;;;;4.63;3.15;;;25.80;62.20;;;;;;6333005;22;19999;-86
2022/06/12 06:55:17;;;;;;;2.83;2.63;;;25.90;61.70;;;;;;6338393;22;20009;-86
2022/06/12 06:57:45;;;;;;;3.92;2.47;;;25.90;61.20;;;;;;6336650;22;20009;-86
2022/06/12 07:00:15;;;;;;;3.40;2.42;;;25.90;61.20;;;;;;6338725;22;20003;-87
2022/06/12 07:02:41;;;;;;;3.47;2.90;;;25.90;61.00;;;;;;6338413;22;20033;-88
2022/06/12 07:05:07;;;;;;;3.50;2.30;;;25.90;60.30;;;;;;6338663;22;19998;-87
2022/06/12 07:07:34;;;;;;;2.80;2.58;;;26.00;60.50;;;;;;6339233;22;20007;-88
2022/06/12 07:10:02;;;;;;;2.70;2.42;;;26.00;60.40;;;;;;6338310;22;20006;-88
2022/06/12 07:12:28;;;;;;;2.80;2.40;;;26.10;60.40;;;;;;6310757;22;20015;-88
2022/06/12 07:14:53;;;;;;;3.25;2.25;;;26.20;60.40;;;;;;6338667;22;20022;-88
2022/06/12 07:17:19;;;;;;;2.22;1.95;;;26.20;60.30;;;;;;6310969;22;20081;-88
2022/06/12 07:19:45;;;;;;;4.03;2.05;;;26.30;60.20;;;;;;6311009;22;20034;-88
2022/06/12 07:22:11;;;;;;;3.40;2.10;;;26.30;59.80;;;;;;6338812;22;20006;-88
2022/06/12 07:24:36;;;;;;;2.55;1.85;;;26.30;59.80;;;;;;6338726;22;20428;-88
2022/06/12 07:27:03;;;;;;;3.28;2.58;;;26.40;59.90;;;;;;6338380;22;20017;-88
2022/06/12 07:29:29;;;;;;;2.25;1.70;;;26.40;59.70;;;;;;6338907;22;20055;-88
2022/06/12 07:31:55;;;;;;;5.70;2.70;;;26.40;59.20;;;;;;6338961;22;20022;-88
2022/06/12 07:34:21;;;;;;;2.08;1.67;;;26.50;59.00;;;;;;6338430;22;19998;-88
2022/06/12 07:36:49;;;;;;;2.35;1.90;;;26.50;59.20;;;;;;6338849;22;19999;-89
2022/06/12 07:39:19;;;;;;;1.55;1.45;;;26.60;57.90;;;;;;6338348;22;19999;-88
2022/06/12 07:41:48;;;;;;;2.03;1.33;;;26.60;58.50;;;;;;6338622;22;19998;-89
2022/06/12 07:44:16;;;;;;;1.60;1.40;;;26.70;57.90;;;;;;6338746;22;20149;-89
2022/06/12 07:46:42;;;;;;;1.88;1.48;;;26.80;57.60;;;;;;6338703;22;20340;-89
2022/06/12 07:49:08;;;;;;;3.97;1.90;;;26.90;57.00;;;;;;6311003;22;20420;-88
2022/06/12 07:51:34;;;;;;;2.05;1.60;;;26.90;56.60;;;;;;6338766;22;20325;-88
2022/06/12 07:54:00;;;;;;;4.20;1.80;;;26.90;56.90;;;;;;6338653;22;19995;-88
2022/06/12 07:56:26;;;;;;;2.20;1.80;;;27.00;57.90;;;;;;6338484;22;20424;-88
2022/06/12 07:58:52;;;;;;;4.22;1.80;;;27.00;58.00;;;;;;6338351;22;20006;-88
2022/06/12 08:01:22;;;;;;;3.30;2.28;;;27.10;58.60;;;;;;6338903;22;20470;-88
2022/06/12 08:03:48;;;;;;;3.40;2.50;;;27.20;59.00;;;;;;6339091;22;20010;-88
2022/06/12 08:06:21;;;;;;;5.65;2.05;;;27.30;59.50;;;;;;6311016;22;20086;-88
2022/06/12 08:08:47;;;;;;;4.68;2.30;;;27.30;59.80;;;;;;6338742;22;20002;-88
2022/06/12 08:11:13;;;;;;;3.58;2.42;;;27.40;60.00;;;;;;6338910;22;20003;-88
2022/06/12 08:13:39;;;;;;;3.28;2.33;;;27.40;60.20;;;;;;6311395;22;20007;-89
2022/06/12 08:16:05;;;;;;;3.88;2.70;;;27.50;60.40;;;;;;6338798;22;20081;-88
2022/06/12 08:18:31;;;;;;;3.30;2.80;;;27.50;60.70;;;;;;6305715;22;20028;-88
2022/06/12 08:21:03;;;;;;;3.00;2.67;;;27.60;61.20;;;;;;6337525;22;20023;-88
2022/06/12 08:23:44;;;;;;;3.83;2.75;;;27.70;61.40;;;;;;6336946;22;19999;-88
2022/06/12 08:26:13;;;;;;;3.95;2.20;;;27.70;61.30;;;;;;6310655;22;20003;-88
2022/06/12 08:28:45;;;;;;;3.47;2.30;;;27.80;61.20;;;;;;6337758;22;20023;-88
2022/06/12 08:31:14;;;;;;;2.10;1.90;;;27.90;60.70;;;;;;6337999;22;20065;-88
2022/06/12 08:33:42;;;;;;;3.80;2.05;;;27.90;60.00;;;;;;6338155;22;20078;-88
2022/06/12 08:36:11;;;;;;;4.45;2.38;;;28.00;59.80;;;;;;6310724;22;20329;-88
2022/06/12 08:38:37;;;;;;;3.78;2.20;;;28.00;59.90;;;;;;6338143;22;20003;-88
2022/06/12 08:41:31;;;;;;;3.80;2.13;;;28.00;59.80;;;;;;6338338;22;20082;-88
2022/06/12 08:44:07;;;;;;;4.28;2.30;;;28.10;59.30;;;;;;6326726;22;20030;-88
2022/06/12 08:46:41;;;;;;;2.88;1.83;;;28.10;59.50;;;;;;6338329;22;20013;-88
2022/06/12 08:49:35;;;;;;;2.17;1.92;;;28.20;59.50;;;;;;6338061;22;20378;-87
2022/06/12 08:52:24;;;;;;;3.05;1.80;;;28.20;59.00;;;;;;6258542;22;20033;-87
2022/06/12 08:55:03;;;;;;;3.78;1.90;;;28.30;59.20;;;;;;6338391;22;20002;-88
2022/06/12 08:57:36;;;;;;;2.95;1.80;;;28.40;57.40;;;;;;6338284;22;20425;-88
2022/06/12 09:00:09;;;;;;;3.60;1.88;;;28.40;58.10;;;;;;6310332;22;20026;-87
2022/06/12 09:02:37;;;;;;;2.03;1.60;;;28.40;58.00;;;;;;6337268;22;20073;-87
2022/06/12 09:05:07;;;;;;;4.07;2.47;;;28.50;57.60;;;;;;6336871;22;19999;-87
2022/06/12 09:08:15;;;;;;;2.40;1.90;;;28.60;56.70;;;;;;6335168;22;20483;-87
2022/06/12 09:10:45;;;;;;;1.45;1.10;;;28.60;55.20;;;;;;6320878;22;20043;-87
2022/06/12 09:13:15;;;;;;;;;;;28.70;54.80;;;;;;6311226;22;20097;-87
2022/06/12 09:15:46;;;;;;;1.95;1.48;;;28.70;53.00;;;;;;6339497;22;20212;-88
2022/06/12 09:18:29;;;;;;;1.95;1.50;;;28.80;53.80;;;;;;6338750;22;19995;-87
2022/06/12 09:21:28;;;;;;;1.67;1.55;;;28.80;52.50;;;;;;6338538;22;20006;-83
2022/06/12 09:23:53;;;;;;;1.67;1.35;;;28.80;52.80;;;;;;6338789;22;19999;-82
2022/06/12 09:26:40;;;;;;;3.67;1.08;;;28.90;53.10;;;;;;6338828;22;19998;-84
2022/06/12 09:29:30;;;;;;;2.65;1.48;;;28.90;52.80;;;;;;6338782;22;20006;-84
2022/06/12 09:32:26;;;;;;;1.80;1.48;;;29.00;52.50;;;;;;6320734;22;20013;-84
2022/06/12 09:35:11;;;;;;;2.17;1.20;;;29.10;53.50;;;;;;6338865;22;20030;-84
2022/06/12 09:38:19;;;;;;;2.15;1.17;;;29.10;54.30;;;;;;6311709;22;20003;-84
2022/06/12 09:41:12;;;;;;;1.58;1.40;;;29.20;53.70;;;;;;6323557;22;20425;-84
2022/06/12 09:44:13;;;;;;;1.50;1.40;;;29.30;52.90;;;;;;6337841;22;19998;-86
2022/06/12 09:46:44;;;;;;;2.90;1.33;;;29.40;51.60;;;;;;6273195;22;19999;-85
2022/06/12 09:49:19;;;;;;;2.75;1.30;;;29.30;52.80;;;;;;6339059;22;20305;-84
2022/06/12 09:52:13;;;;;;;1.60;1.20;;;29.40;52.60;;;;;;6311722;22;20425;-86
2022/06/12 09:54:59;;;;;;;3.63;1.40;;;29.50;52.10;;;;;;6228497;22;20008;-84
2022/06/12 09:57:31;;;;;;;2.92;1.65;;;29.60;51.50;;;;;;6339062;22;19994;-84
2022/06/12 10:00:12;;;;;;;4.53;1.90;;;29.70;51.60;;;;;;6338828;22;20009;-85
2022/06/12 10:02:42;;;;;;;2.20;1.48;;;29.70;51.30;;;;;;6339674;22;20003;-84
2022/06/12 10:05:19;;;;;;;1.52;1.20;;;29.70;51.30;;;;;;6338040;22;20072;-85
2022/06/12 10:08:05;;;;;;;2.08;1.73;;;29.80;51.20;;;;;;6311721;22;20006;-84
2022/06/12 10:10:49;;;;;;;3.58;1.70;;;29.90;49.00;;;;;;6339153;22;20051;-87
2022/06/12 10:13:21;;;;;;;2.05;1.30;;;30.00;50.10;;;;;;6339069;22;20030;-88
2022/06/12 10:15:52;;;;;;;2.55;1.27;;;30.00;50.20;;;;;;6339140;22;20007;-86
2022/06/12 10:18:30;;;;;;;1.45;1.10;;;30.10;50.10;;;;;;6338705;22;20002;-84
2022/06/12 10:21:06;;;;;;;1.25;1.10;;;30.20;49.60;;;;;;6339482;22;20235;-87
2022/06/12 10:23:32;;;;;;;3.78;1.30;;;30.30;48.80;;;;;;6338577;22;20010;-84
2022/06/12 10:26:01;;;;;;;2.05;1.35;;;30.40;47.00;;;;;;6310854;22;19999;-85
2022/06/12 10:28:34;;;;;;;1.38;1.20;;;30.50;47.10;;;;;;6337961;22;19995;-85
2022/06/12 10:31:03;;;;;;;2.92;1.35;;;30.60;46.20;;;;;;6338880;22;20436;-84
2022/06/12 10:33:49;;;;;;;1.40;1.30;;;30.70;43.80;;;;;;6338872;22;20459;-85
2022/06/12 10:36:18;;;;;;;1.83;1.10;;;30.80;44.50;;;;;;6338846;22;20217;-84
2022/06/12 10:38:44;;;;;;;1.90;1.40;;;30.90;45.00;;;;;;6339146;22;20064;-83
2022/06/12 10:42:02;;;;;;;4.65;1.45;;;31.00;43.80;;;;;;6310251;22;20006;-83
2022/06/12 10:44:31;;;;;;;2.53;1.42;;;31.20;45.10;;;;;;6206116;22;20375;-83
2022/06/12 10:47:18;;;;;;;1.98;1.63;;;31.30;45.00;;;;;;6338726;22;20002;-84
2022/06/12 10:49:44;;;;;;;2.22;1.90;;;31.40;45.80;;;;;;6338939;22;20022;-81
2022/06/12 10:52:22;;;;;;;3.30;1.50;;;31.50;45.00;;;;;;6311283;22;20002;-83
2022/06/12 10:54:51;;;;;;;2.83;1.30;;;31.70;45.10;;;;;;6338611;22;20302;-83
2022/06/12 10:57:44;;;;;;;3.67;0.90;;;31.80;45.00;;;;;;6310501;22;20003;-83
2022/06/12 11:00:19;;;;;;;2.45;1.77;;;31.90;44.20;;;;;;6337650;22;20009;-82
2022/06/12 11:03:09;;;;;;;2.17;1.45;;;32.00;43.70;;;;;;6338693;22;20009;-80
2022/06/12 11:05:44;;;;;;;2.05;1.20;;;32.10;43.90;;;;;;6338316;22;20006;-82
2022/06/12 11:08:25;;;;;;;3.97;1.33;;;32.10;43.90;;;;;;6338365;22;20026;-82
2022/06/12 11:11:05;;;;;;;3.17;1.23;;;32.20;43.90;;;;;;6310510;22;20005;-82
2022/06/12 11:13:50;;;;;;;1.40;1.25;;;32.40;44.30;;;;;;6275888;22;20035;-83
2022/06/12 11:16:34;;;;;;;1.80;1.55;;;32.60;44.50;;;;;;6276164;22;19996;-81
2022/06/12 11:19:37;;;;;;;5.03;1.50;;;32.70;43.70;;;;;;6276664;22;20003;-81
2022/06/12 11:22:30;;;;;;;1.30;1.00;;;32.90;43.00;;;;;;6273588;22;20015;-81
2022/06/12 11:25:02;;;;;;;4.38;1.70;;;33.10;41.50;;;;;;6269860;22;20003;-80
2022/06/12 11:27:27;;;;;;;3.17;1.70;;;33.40;40.70;;;;;;6273732;22;20007;-80
2022/06/12 11:29:56;;;;;;;6.43;1.73;;;33.50;40.60;;;;;;6274791;22;20011;-81
2022/06/12 11:32:41;;;;;;;2.70;1.20;;;33.70;40.50;;;;;;6273784;22;19996;-84
2022/06/12 11:35:47;;;;;;;1.73;1.05;;;34.10;39.70;;;;;;6275359;22;20007;-83
2022/06/12 11:38:30;;;;;;;1.40;1.25;;;34.70;39.90;;;;;;6276184;22;20004;-82
2022/06/12 11:41:00;;;;;;;3.13;1.55;;;35.30;39.20;;;;;;6276168;22;19996;-82
2022/06/12 11:43:37;;;;;;;4.30;1.10;;;35.80;37.40;;;;;;6276466;22;20000;-82
2022/06/12 11:46:22;;;;;;;1.83;1.10;;;36.00;36.60;;;;;;6276399;22;20067;-82
2022/06/12 11:49:20;;;;;;;2.90;0.98;;;36.30;36.80;;;;;;6276113;22;20049;-83
2022/06/12 11:52:04;;;;;;;1.42;1.00;;;36.50;35.60;;;;;;6276129;22;20066;-82
2022/06/12 11:54:54;;;;;;;1.08;0.98;;;36.80;36.70;;;;;;6274284;22;20449;-83
2022/06/12 11:57:48;;;;;;;1.17;0.90;;;36.90;36.40;;;;;;6272860;22;20034;-82
2022/06/12 12:00:26;;;;;;;2.38;0.88;;;37.10;35.30;;;;;;6275185;22;20004;-82
2022/06/12 12:03:11;;;;;;;1.30;0.93;;;37.20;34.70;;;;;;6275706;22;20291;-83
2022/06/12 12:06:02;;;;;;;1.30;1.00;;;37.30;34.70;;;;;;6275644;22;20027;-82
2022/06/12 12:08:55;;;;;;;1.55;0.90;;;37.40;33.40;;;;;;6275464;22;20027;-82
2022/06/12 12:11:32;;;;;;;1.63;0.90;;;37.40;33.50;;;;;;6284523;22;20014;-81
2022/06/12 12:14:03;;;;;;;3.97;1.13;;;37.40;32.40;;;;;;6338522;22;19995;-86
2022/06/12 12:16:44;;;;;;;2.88;1.20;;;37.50;32.90;;;;;;6338260;22;20026;-85
2022/06/12 12:19:25;;;;;;;1.58;1.15;;;37.60;31.80;;;;;;6337098;22;20298;-87
2022/06/12 12:21:53;;;;;;;1.08;0.93;;;37.40;32.60;;;;;;6337954;22;20518;-87
2022/06/12 12:24:30;;;;;;;2.45;0.80;;;37.30;33.70;;;;;;6337488;22;19999;-87
2022/06/12 12:26:59;;;;;;;2.83;1.10;;;37.50;33.30;;;;;;6337426;22;20082;-83
2022/06/12 12:29:29;;;;;;;2.15;1.00;;;37.50;33.10;;;;;;6338221;22;19999;-84
2022/06/12 12:31:55;;;;;;;3.65;1.08;;;37.50;31.80;;;;;;6337668;22;20425;-83
2022/06/12 12:34:24;;;;;;;2.88;0.90;;;37.60;32.50;;;;;;6338632;22;20074;-85
2022/06/12 12:42:37;;;;;;;1.30;0.88;;;37.90;33.00;;;;;;6339322;22;20076;-84
2022/06/12 12:45:13;;;;;;;1.98;1.00;;;38.10;32.60;;;;;;6309828;22;20002;-84
2022/06/12 12:47:39;;;;;;;2.67;0.98;;;38.20;32.10;;;;;;6310967;22;20081;-84
2022/06/12 12:50:13;;;;;;;1.08;0.73;;;38.20;32.40;;;;;;6337881;22;20049;-83
2022/06/12 12:52:53;;;;;;;2.78;1.23;;;38.20;32.30;;;;;;6338484;22;19998;-84
2022/06/12 12:55:35;;;;;;;1.83;0.90;;;38.20;30.70;;;;;;6308353;22;20003;-79
2022/06/12 12:58:13;;;;;;;2.40;1.15;;;38.20;30.60;;;;;;6310270;22;20120;-79
2022/06/12 13:00:39;;;;;;;1.07;0.77;;;38.20;31.60;;;;;;6332133;22;20003;-78
2022/06/12 13:03:26;;;;;;;2.15;0.80;;;38.00;30.50;;;;;;6337722;22;20013;-83
2022/06/12 13:06:16;;;;;;;2.10;0.95;;;38.10;30.70;;;;;;6337715;22;20014;-83
2022/06/12 13:08:50;;;;;;;1.30;0.95;;;38.00;30.40;;;;;;6291058;22;20077;-83
2022/06/12 13:11:22;;;;;;;4.75;0.88;;;38.00;30.60;;;;;;6309920;22;19999;-84
2022/06/12 13:13:57;;;;;;;2.60;1.02;;;37.90;31.30;;;;;;6336914;22;20006;-79
2022/06/12 13:16:37;;;;;;;1.77;0.93;;;38.10;30.80;;;;;;6337841;22;20098;-84
2022/06/12 13:19:15;;;;;;;4.88;1.15;;;37.90;30.90;;;;;;6336579;22;20306;-82
2022/06/12 13:22:13;;;;;;;1.13;0.82;;;37.70;31.40;;;;;;6310397;22;20355;-80
2022/06/12 13:24:55;;;;;;;0.93;0.82;;;37.60;31.40;;;;;;6336794;22;19999;-79
2022/06/12 13:27:26;;;;;;;3.55;0.77;;;37.40;31.70;;;;;;6338125;22;20061;-83
2022/06/12 13:29:53;;;;;;;1.27;0.80;;;37.40;32.80;;;;;;6311072;22;20064;-84
2022/06/12 13:32:39;;;;;;;2.50;1.27;;;37.60;32.40;;;;;;6338959;22;20002;-79
2022/06/12 13:35:16;;;;;;;1.08;0.90;;;37.70;32.80;;;;;;6310393;22;20007;-84
2022/06/12 13:37:45;;;;;;;2.40;1.08;;;37.60;32.60;;;;;;6339180;22;19999;-82
2022/06/12 13:40:32;;;;;;;1.05;0.90;;;37.70;31.30;;;;;;6339304;22;20086;-85